Time;durP1;ratioP1;P1;durP2;ratioP2;P2;SDS_P1;SDS_P2;PMS_P1;PMS_P2;Temp;Humidity;BMP_temperature;BMP_pressure;BME280_temperature;BME280_humidity;BME280_pressure;Samples;Min_cycle;Max_cycle;Signal;HPM_P1;HPM_P2
2023/04/13 00:00:23;;;;;;;5.20;3.10;;;8.80;56.80;;;8.68;43.22;94194.84;5092153;28;20986;-55
2023/04/13 00:02:54;;;;;;;3.50;3.20;;;8.70;56.80;;;8.55;43.68;94190.75;5090193;28;20470;-63
2023/04/13 00:05:22;;;;;;;3.20;2.90;;;8.60;57.30;;;8.43;44.34;94187.47;5080035;28;20476;-62
2023/04/13 00:07:49;;;;;;;7.67;2.57;;;8.50;57.30;;;8.34;43.94;94195.34;5078365;28;20863;-60
2023/04/13 00:10:19;;;;;;;2.90;2.17;;;8.40;57.50;;;8.23;44.38;94191.91;5079446;28;20549;-54
2023/04/13 00:12:48;;;;;;;3.43;2.70;;;8.30;57.70;;;8.16;44.33;94190.00;5078521;28;20498;-56
2023/04/13 00:15:16;;;;;;;3.27;2.90;;;8.20;58.00;;;8.08;44.69;94195.94;5072523;28;20457;-56
2023/04/13 00:17:44;;;;;;;6.50;2.87;;;8.10;58.20;;;8.00;45.20;94199.28;5077891;28;21012;-63
2023/04/13 00:20:12;;;;;;;2.70;2.50;;;8.10;58.40;;;7.91;45.66;94205.34;5078880;28;20446;-58
2023/04/13 00:22:39;;;;;;;6.60;2.50;;;8.00;58.90;;;7.79;45.64;94216.94;5080175;28;20469;-63
2023/04/13 00:25:07;;;;;;;4.73;2.73;;;7.90;58.90;;;7.71;45.90;94220.25;5077640;28;21162;-62
2023/04/13 00:27:37;;;;;;;2.73;2.40;;;7.80;59.20;;;7.64;45.24;94208.69;5078478;28;20470;-60
2023/04/13 00:30:08;;;;;;;5.93;2.43;;;7.70;59.20;;;7.57;45.40;94210.22;5075399;28;20446;-62
2023/04/13 00:32:36;;;;;;;2.53;2.17;;;7.60;59.10;;;7.53;45.52;94209.66;5079915;28;20864;-61
2023/04/13 00:35:04;;;;;;;3.50;2.23;;;7.60;59.30;;;7.48;45.78;94207.47;5078337;28;20451;-60
2023/04/13 00:37:32;;;;;;;14.40;7.03;;;7.60;59.50;;;7.45;45.98;94210.34;5077467;28;20470;-56
2023/04/13 00:39:59;;;;;;;12.80;6.80;;;7.50;59.40;;;7.42;45.64;94210.63;5079233;28;20454;-54
2023/04/13 00:42:26;;;;;;;10.60;6.77;;;7.50;59.80;;;7.41;46.57;94206.34;5077700;28;20487;-61
2023/04/13 00:44:54;;;;;;;10.43;6.83;;;7.50;59.80;;;7.36;45.91;94208.56;5079558;28;20453;-62
2023/04/13 00:47:27;;;;;;;15.90;6.33;;;7.40;59.80;;;7.31;46.55;94198.50;5074223;28;20941;-62
2023/04/13 00:49:55;;;;;;;9.03;3.50;;;7.40;59.90;;;7.29;46.32;94202.22;5072545;28;20863;-62
2023/04/13 00:52:22;;;;;;;14.77;3.70;;;7.40;60.00;;;7.25;46.70;94201.66;5072116;28;20494;-56
2023/04/13 00:54:50;;;;;;;4.20;3.80;;;7.30;60.30;;;7.23;46.91;94207.97;5068564;28;20517;-56
2023/04/13 00:57:17;;;;;;;31.57;17.40;;;7.30;60.40;;;7.20;47.11;94213.47;5074003;28;20485;-55
2023/04/13 00:59:48;;;;;;;48.63;22.87;;;7.30;60.60;;;7.14;47.05;94212.22;5074130;28;20500;-55
2023/04/13 01:02:15;;;;;;;49.47;23.90;;;7.20;61.00;;;7.08;47.02;94205.75;5073495;28;20474;-62
2023/04/13 01:04:44;;;;;;;42.13;24.10;;;7.20;61.10;;;7.03;47.02;94207.13;5071377;28;20447;-57
2023/04/13 01:07:16;;;;;;;28.90;17.97;;;7.10;61.00;;;6.97;46.67;94205.84;5071613;28;20612;-62
2023/04/13 01:09:48;;;;;;;27.53;13.97;;;7.10;61.00;;;6.93;46.85;94201.88;5071677;28;20443;-62
2023/04/13 01:12:26;;;;;;;19.80;10.53;;;7.00;60.90;;;6.90;47.39;94202.97;5074678;28;20586;-62
2023/04/13 01:14:58;;;;;;;20.27;11.17;;;7.00;61.30;;;6.88;47.39;94214.50;5068801;28;20750;-55
2023/04/13 01:17:28;;;;;;;24.93;9.90;;;7.00;61.40;;;6.85;47.19;94214.78;5073705;28;20532;-56
2023/04/13 01:20:00;;;;;;;23.60;9.77;;;6.90;61.50;;;6.80;47.60;94216.03;5072936;28;20488;-56
2023/04/13 01:22:29;;;;;;;14.30;9.43;;;6.90;61.80;;;6.77;47.71;94211.06;5072492;28;20477;-54
2023/04/13 01:25:16;;;;;;;19.03;10.97;;;6.90;62.10;;;6.74;47.27;94213.94;5070887;28;21163;-61
2023/04/13 01:27:47;;;;;;;16.50;10.30;;;6.90;61.90;;;6.71;47.50;94219.44;5075430;28;20550;-62
2023/04/13 01:30:15;;;;;;;20.47;9.50;;;6.80;62.20;;;6.63;47.41;94214.00;5070111;28;20447;-62
2023/04/13 01:32:44;;;;;;;15.50;9.93;;;6.70;62.10;;;6.57;47.66;94217.19;5068988;28;21089;-56
2023/04/13 01:35:11;;;;;;;18.93;9.50;;;6.70;62.50;;;6.53;47.81;94218.41;5074644;28;20466;-61
2023/04/13 01:37:39;;;;;;;24.10;11.27;;;6.60;62.50;;;6.48;47.86;94218.78;5077692;28;20466;-63
2023/04/13 01:40:11;;;;;;;14.77;10.93;;;6.60;62.90;;;6.44;48.29;94214.78;5074581;28;20450;-57
2023/04/13 01:42:39;;;;;;;18.43;10.10;;;6.60;63.40;;;6.42;48.14;94214.09;5074784;28;20468;-63
2023/04/13 01:45:11;;;;;;;19.70;9.50;;;6.50;63.20;;;6.40;48.11;94214.22;5071125;28;21054;-55
2023/04/13 01:47:40;;;;;;;16.93;9.40;;;6.50;63.50;;;6.39;48.15;94215.16;5075356;28;20824;-57
2023/04/13 01:50:14;;;;;;;12.10;7.93;;;6.50;63.50;;;6.39;48.51;94212.56;5071948;28;20459;-57
2023/04/13 01:52:41;;;;;;;15.87;9.40;;;6.50;63.60;;;6.38;48.94;94205.69;5073659;28;20492;-56
2023/04/13 01:55:11;;;;;;;18.97;9.80;;;6.50;64.30;;;6.38;48.69;94208.31;5072198;28;20446;-61
2023/04/13 01:57:38;;;;;;;13.47;8.40;;;6.50;64.30;;;6.37;49.33;94203.22;5071026;28;20566;-61
2023/04/13 02:00:13;;;;;;;17.13;10.40;;;6.50;64.40;;;6.35;48.77;94203.34;5079823;28;20469;-62
2023/04/13 02:02:41;;;;;;;14.30;8.40;;;6.50;64.70;;;6.35;48.94;94202.50;5075612;28;20474;-61
2023/04/13 02:05:09;;;;;;;18.10;8.80;;;6.40;64.90;;;6.33;49.27;94212.25;5076755;28;20982;-62
2023/04/13 02:07:38;;;;;;;15.90;7.37;;;6.50;64.70;;;6.33;48.85;94213.06;5075961;28;20477;-63
2023/04/13 02:10:07;;;;;;;8.63;5.87;;;6.40;64.60;;;6.31;49.14;94217.63;5078056;28;20461;-56
2023/04/13 02:12:34;;;;;;;6.33;5.70;;;6.40;65.20;;;6.30;48.70;94223.78;5073257;28;20498;-56
2023/04/13 02:15:01;;;;;;;8.47;7.23;;;6.40;65.00;;;6.30;49.15;94213.34;5077588;28;20453;-56
2023/04/13 02:17:30;;;;;;;17.53;10.27;;;6.40;65.10;;;6.32;49.26;94219.28;5076083;28;20509;-56
2023/04/13 02:19:58;;;;;;;9.23;5.30;;;6.40;65.20;;;6.32;49.36;94215.81;5074693;28;21286;-62
2023/04/13 02:22:26;;;;;;;45.37;27.13;;;6.40;65.20;;;6.33;49.27;94217.47;5076677;28;20477;-62
2023/04/13 02:24:55;;;;;;;82.47;45.50;;;6.40;65.20;;;6.33;49.27;94226.13;5071924;28;20538;-62
2023/04/13 02:27:23;;;;;;;71.47;43.17;;;6.40;65.20;;;6.33;49.24;94222.69;5074410;28;20470;-62
2023/04/13 02:29:51;;;;;;;73.43;39.80;;;6.40;65.30;;;6.33;48.87;94230.53;5072426;28;20967;-63
2023/04/13 02:32:19;;;;;;;51.23;30.27;;;6.50;65.40;;;6.33;49.21;94223.53;5075027;28;20491;-61
2023/04/13 02:34:47;;;;;;;18.30;11.83;;;6.40;65.50;;;6.32;49.34;94228.88;5078486;28;20998;-56
2023/04/13 02:37:15;;;;;;;17.17;5.73;;;6.40;65.50;;;6.31;49.54;94227.25;5072182;28;20565;-56
2023/04/13 02:39:42;;;;;;;10.60;4.20;;;6.40;65.80;;;6.29;49.85;94222.16;5075497;28;20446;-61
2023/04/13 02:42:10;;;;;;;6.43;3.57;;;6.40;66.20;;;6.25;49.46;94224.16;5076592;28;20478;-56
2023/04/13 02:44:38;;;;;;;9.40;5.73;;;6.40;66.10;;;6.25;49.58;94228.56;5074642;28;20681;-62
2023/04/13 02:47:06;;;;;;;10.80;5.60;;;6.30;65.90;;;6.24;49.41;94229.53;5077889;28;20773;-55
2023/04/13 02:49:33;;;;;;;8.00;5.30;;;6.30;66.50;;;6.23;49.92;94225.28;5069587;28;20447;-56
2023/04/13 02:52:02;;;;;;;4.83;4.23;;;6.30;66.70;;;6.21;49.32;94229.78;5078467;28;20469;-55
2023/04/13 02:54:29;;;;;;;15.17;4.00;;;6.30;65.90;;;6.16;49.54;94232.78;5072032;28;20439;-56
2023/04/13 02:56:57;;;;;;;4.50;4.10;;;6.30;66.30;;;6.13;50.06;94238.25;5077809;28;20466;-61
2023/04/13 02:59:25;;;;;;;7.13;4.40;;;6.30;67.50;;;6.10;49.67;94241.97;5073934;28;20457;-66
2023/04/13 03:01:57;;;;;;;7.20;4.80;;;6.20;66.90;;;6.06;49.78;94247.56;5074897;28;21037;-56
2023/04/13 03:04:25;;;;;;;9.07;4.13;;;6.20;66.60;;;6.00;49.70;94248.09;5074715;28;20525;-56
2023/04/13 03:06:53;;;;;;;10.03;4.40;;;6.10;66.90;;;5.97;49.97;94243.13;5069818;28;20474;-55
2023/04/13 03:09:22;;;;;;;12.03;3.83;;;6.10;67.50;;;5.94;49.89;94252.00;5075671;28;20505;-55
2023/04/13 03:11:49;;;;;;;8.33;4.00;;;6.10;67.60;;;5.90;50.40;94253.19;5069913;28;20477;-63
2023/04/13 03:14:20;;;;;;;13.87;4.47;;;6.00;67.70;;;5.87;50.05;94251.69;5074402;28;20879;-63
2023/04/13 03:16:48;;;;;;;9.67;4.37;;;6.00;67.80;;;5.85;50.54;94250.13;5071846;28;20458;-63
2023/04/13 03:19:15;;;;;;;23.43;5.00;;;6.00;68.10;;;5.83;50.21;94257.28;5073421;28;20455;-56
2023/04/13 03:21:43;;;;;;;14.53;4.70;;;5.90;68.10;;;5.80;50.64;94260.94;5072436;28;21251;-64
2023/04/13 03:24:11;;;;;;;9.37;4.70;;;5.90;68.50;;;5.79;50.75;94258.47;5069901;28;20693;-56
2023/04/13 03:26:40;;;;;;;11.97;4.60;;;5.90;68.50;;;5.78;51.03;94268.09;5073555;28;20462;-55
2023/04/13 03:29:07;;;;;;;17.83;5.70;;;5.90;68.90;;;5.79;50.94;94268.91;5068517;28;20454;-57
2023/04/13 03:31:34;;;;;;;15.80;5.70;;;5.90;69.20;;;5.76;51.26;94259.53;5076129;28;20471;-62
2023/04/13 03:34:02;;;;;;;8.93;4.97;;;5.90;69.50;;;5.75;51.00;94266.56;5075292;28;20482;-61
2023/04/13 03:36:30;;;;;;;7.93;4.83;;;5.90;69.50;;;5.77;50.83;94263.81;5076918;28;20474;-61
2023/04/13 03:38:58;;;;;;;10.43;5.20;;;5.90;69.50;;;5.76;51.09;94259.53;5077833;28;20485;-63
2023/04/13 03:41:26;;;;;;;11.23;6.07;;;5.90;69.50;;;5.78;50.80;94267.25;5077001;28;20512;-55
2023/04/13 03:43:54;;;;;;;20.10;5.93;;;5.90;69.70;;;5.77;50.97;94265.59;5078534;28;20461;-62
2023/04/13 03:46:22;;;;;;;18.23;5.77;;;5.90;69.90;;;5.79;51.36;94261.09;5073692;28;20928;-56
2023/04/13 03:48:49;;;;;;;16.70;5.80;;;5.90;70.40;;;5.78;51.43;94272.47;5081072;28;20454;-56
2023/04/13 03:51:16;;;;;;;14.23;6.00;;;5.90;70.40;;;5.79;51.07;94261.09;5078796;28;20531;-62
2023/04/13 03:53:44;;;;;;;17.50;4.90;;;5.90;70.50;;;5.79;51.42;94261.09;5073486;28;20871;-61
2023/04/13 03:56:11;;;;;;;18.80;6.50;;;5.90;70.60;;;5.77;51.38;94263.81;5073654;28;20537;-60
2023/04/13 03:58:38;;;;;;;12.43;6.87;;;5.90;71.20;;;5.78;51.85;94267.25;5077257;28;20908;-61
2023/04/13 04:01:08;;;;;;;14.10;5.93;;;5.90;71.80;;;5.79;52.08;94271.53;5075899;28;20828;-56
2023/04/13 04:03:36;;;;;;;16.63;7.03;;;5.90;71.80;;;5.80;51.82;94270.56;5072309;28;20445;-56
2023/04/13 04:06:04;;;;;;;39.20;15.20;;;5.90;72.20;;;5.82;51.90;94268.66;5079018;28;20515;-55
2023/04/13 04:08:32;;;;;;;45.90;18.17;;;5.90;72.40;;;5.83;51.74;94278.16;5076039;28;20446;-58
2023/04/13 04:10:59;;;;;;;65.57;23.17;;;5.90;72.30;;;5.83;52.25;94278.97;5077078;28;20523;-59
2023/04/13 04:13:27;;;;;;;49.00;18.80;;;5.90;72.70;;;5.84;52.23;94277.19;5077510;28;20552;-57
2023/04/13 04:15:55;;;;;;;31.90;15.87;;;6.00;72.90;;;5.84;52.11;94278.03;5079459;28;20454;-56
2023/04/13 04:18:23;;;;;;;25.73;10.10;;;6.00;72.80;;;5.87;51.97;94279.53;5071291;28;20473;-57
2023/04/13 04:20:50;;;;;;;15.20;10.63;;;6.00;72.90;;;5.89;52.37;94273.25;5079377;28;20869;-58
2023/04/13 04:23:18;;;;;;;27.43;14.53;;;6.00;73.00;;;5.91;52.34;94270.50;5072928;28;20834;-62
2023/04/13 04:25:45;;;;;;;32.70;15.43;;;6.00;73.00;;;5.92;51.95;94275.59;5071157;28;20451;-61
2023/04/13 04:28:16;;;;;;;23.40;13.50;;;6.00;73.50;;;5.95;51.97;94281.53;5075471;28;20524;-57
2023/04/13 04:30:44;;;;;;;26.33;12.07;;;6.00;73.50;;;5.96;52.09;94284.00;5075671;28;20614;-55
2023/04/13 04:33:13;;;;;;;16.57;6.40;;;6.10;74.00;;;5.97;52.17;94280.47;5077300;28;20877;-61
2023/04/13 04:35:48;;;;;;;12.10;6.50;;;6.10;73.80;;;5.99;51.92;94283.78;5078091;28;20454;-57
2023/04/13 04:38:16;;;;;;;11.37;6.23;;;6.10;72.90;;;6.00;51.78;94288.06;5077366;28;20465;-62
2023/04/13 04:40:44;;;;;;;16.37;7.90;;;6.10;73.30;;;6.06;52.21;94297.19;5075757;28;20458;-61
2023/04/13 04:43:13;;;;;;;14.87;6.83;;;6.10;74.10;;;6.12;52.17;94296.66;5077556;28;20471;-57
2023/04/13 04:45:42;;;;;;;10.97;7.33;;;6.20;74.40;;;6.26;51.88;94303.34;5082757;28;20450;-62
2023/04/13 04:48:10;;;;;;;16.30;6.30;;;6.30;74.20;;;6.44;51.97;94301.81;5075354;28;20472;-57
2023/04/13 04:50:43;;;;;;;14.00;6.70;;;6.50;74.40;;;6.58;52.00;94302.44;5079467;28;20455;-58
2023/04/13 04:53:12;;;;;;;16.93;5.50;;;6.60;74.10;;;6.68;53.42;94298.09;5073643;28;20490;-58
2023/04/13 04:55:39;;;;;;;7.87;5.43;;;6.70;77.30;;;6.78;52.33;94293.72;5071596;28;20609;-57
2023/04/13 04:58:06;;;;;;;18.33;6.30;;;6.80;75.20;;;6.84;51.80;94300.22;5079734;28;20576;-57
2023/04/13 05:00:34;;;;;;;21.23;7.23;;;6.90;74.50;;;6.87;51.45;94301.75;5077224;28;20901;-57
2023/04/13 05:03:01;;;;;;;35.63;9.40;;;7.00;73.80;;;6.88;50.73;94291.16;5076697;28;20576;-62
2023/04/13 05:05:29;;;;;;;30.57;8.87;;;7.00;73.40;;;6.87;51.00;94289.50;5076149;28;20898;-57
2023/04/13 05:07:57;;;;;;;20.00;8.47;;;7.00;73.30;;;6.88;51.39;94295.53;5078204;28;21010;-61
2023/04/13 05:10:27;;;;;;;27.80;8.40;;;7.00;73.50;;;6.90;50.45;94298.88;5070477;28;20454;-63
2023/04/13 05:12:55;;;;;;;34.90;9.77;;;7.00;73.00;;;6.92;51.23;94304.78;5077812;28;20475;-57
2023/04/13 05:15:22;;;;;;;31.40;9.57;;;7.00;73.10;;;6.95;50.94;94297.50;5077837;28;20864;-62
2023/04/13 05:17:49;;;;;;;25.73;9.83;;;7.00;73.20;;;7.00;51.17;94297.09;5075578;28;20592;-62
2023/04/13 05:20:18;;;;;;;27.53;7.53;;;7.10;73.20;;;7.07;50.99;94292.19;5078122;28;20455;-56
2023/04/13 05:22:45;;;;;;;28.70;7.50;;;7.10;73.00;;;7.15;50.47;94292.34;5076928;28;20486;-61
2023/04/13 05:25:13;;;;;;;12.33;6.87;;;7.20;72.80;;;7.24;50.72;94293.34;5078892;28;20537;-58
2023/04/13 05:27:42;;;;;;;10.40;5.10;;;7.30;72.50;;;7.32;50.42;94289.06;5074012;28;21435;-61
2023/04/13 05:30:10;;;;;;;15.93;5.30;;;7.40;72.10;;;7.46;49.44;94287.88;5071883;28;20450;-62
2023/04/13 05:32:37;;;;;;;7.80;4.70;;;7.50;71.60;;;7.59;49.51;94287.63;5077765;28;20496;-56
2023/04/13 05:35:05;;;;;;;9.40;5.47;;;7.60;71.30;;;7.78;49.44;94293.84;5075766;28;20903;-63
2023/04/13 05:37:33;;;;;;;17.10;5.07;;;7.70;70.70;;;7.97;49.13;94285.16;5078827;28;20505;-61
2023/04/13 05:40:00;;;;;;;8.00;4.27;;;7.90;70.60;;;8.17;48.83;94289.41;5074465;28;20450;-58
2023/04/13 05:42:27;;;;;;;15.10;4.30;;;8.10;70.00;;;8.41;48.28;94288.13;5077572;28;20969;-62
2023/04/13 05:44:56;;;;;;;17.43;4.00;;;8.30;69.00;;;8.61;47.19;94278.44;5076305;28;20446;-63
2023/04/13 05:47:23;;;;;;;8.90;3.80;;;8.50;68.30;;;8.85;47.34;94285.84;5075196;28;20480;-56
2023/04/13 05:49:51;;;;;;;18.27;3.67;;;8.70;68.00;;;9.08;46.65;94295.97;5076878;28;20541;-62
2023/04/13 05:52:20;;;;;;;9.27;3.43;;;8.90;66.90;;;9.31;46.22;94289.34;5076204;28;20553;-62
2023/04/13 05:54:48;;;;;;;9.10;4.00;;;9.10;66.30;;;9.57;45.84;94285.19;5070937;28;20490;-63
2023/04/13 05:57:19;;;;;;;10.47;4.07;;;9.30;66.00;;;9.77;45.58;94268.31;5077635;28;20466;-63
2023/04/13 05:59:46;;;;;;;12.70;4.53;;;9.60;64.70;;;9.93;44.69;94278.19;5076779;28;20439;-61
2023/04/13 06:02:15;;;;;;;5.80;3.60;;;9.70;63.60;;;10.07;44.50;94282.06;5071596;28;20557;-62
2023/04/13 06:04:43;;;;;;;11.40;3.17;;;9.90;63.00;;;10.21;44.35;94288.59;5066280;28;20458;-61
2023/04/13 06:07:13;;;;;;;9.37;3.73;;;10.00;61.70;;;10.44;44.04;94288.13;5074152;28;20589;-62
2023/04/13 06:09:41;;;;;;;7.33;3.33;;;10.20;61.80;;;10.68;43.34;94290.09;5069551;28;20455;-63
2023/04/13 06:12:08;;;;;;;5.10;3.00;;;10.40;60.50;;;10.89;43.39;94285.31;5073756;28;20466;-62
2023/04/13 06:14:35;;;;;;;4.70;3.47;;;10.60;60.70;;;11.16;42.72;94282.63;5069981;28;21441;-57
2023/04/13 06:17:03;;;;;;;5.43;3.30;;;10.90;59.80;;;11.49;42.63;94296.72;5072334;28;20619;-58
2023/04/13 06:19:31;;;;;;;7.43;3.10;;;11.20;59.70;;;11.77;42.00;94296.47;5069955;28;20939;-63
2023/04/13 06:21:59;;;;;;;16.83;3.90;;;11.50;58.80;;;12.00;41.89;94289.63;5076030;28;20515;-60
2023/04/13 06:24:27;;;;;;;8.33;3.20;;;11.70;58.40;;;12.26;41.12;94298.41;5068535;28;20442;-63
2023/04/13 06:26:54;;;;;;;7.80;3.90;;;11.90;57.70;;;12.57;41.20;94288.00;5073351;28;20498;-63
2023/04/13 06:29:21;;;;;;;9.47;3.30;;;12.20;57.80;;;12.88;41.77;94296.03;5073798;28;20467;-62
2023/04/13 06:31:49;;;;;;;13.90;3.60;;;12.50;59.00;;;13.23;41.21;94293.13;5074540;28;20577;-62
2023/04/13 06:34:16;;;;;;;12.47;4.03;;;12.90;58.50;;;13.57;41.27;94294.69;5071812;28;20883;-55
2023/04/13 06:36:45;;;;;;;8.73;3.50;;;13.20;58.40;;;13.84;39.70;94284.66;5073344;28;20474;-56
2023/04/13 06:39:12;;;;;;;4.63;3.63;;;13.50;56.50;;;14.07;39.90;94295.25;5070041;28;20450;-63
2023/04/13 06:41:39;;;;;;;9.83;3.23;;;13.70;57.10;;;14.32;39.45;94288.75;5073579;28;20471;-63
2023/04/13 06:44:07;;;;;;;7.90;3.27;;;13.90;54.90;;;14.55;39.01;94293.22;5073395;28;20486;-57
2023/04/13 06:46:34;;;;;;;8.80;2.80;;;14.20;55.20;;;14.81;38.32;94286.72;5072755;28;20538;-63
2023/04/13 06:49:02;;;;;;;7.93;3.03;;;14.50;54.60;;;15.05;38.03;94289.13;5070902;28;20454;-63
2023/04/13 06:51:29;;;;;;;7.60;2.60;;;14.70;53.60;;;15.32;37.40;94281.56;5076602;28;20549;-57
2023/04/13 06:53:58;;;;;;;4.33;2.60;;;15.00;53.00;;;15.61;37.07;94287.84;5068945;28;20495;-63
2023/04/13 06:56:25;;;;;;;10.43;2.87;;;15.20;52.80;;;15.93;36.54;94283.16;5077042;28;20462;-57
2023/04/13 06:58:56;;;;;;;5.13;2.73;;;15.50;52.20;;;16.23;36.11;94281.19;5077450;28;20504;-58
2023/04/13 07:01:23;;;;;;;5.77;2.50;;;15.80;51.80;;;16.55;35.97;94288.84;5074717;28;21037;-63
2023/04/13 07:03:51;;;;;;;9.90;3.23;;;16.20;51.40;;;16.85;35.37;94285.03;5073017;28;20485;-58
2023/04/13 07:06:18;;;;;;;8.70;3.07;;;16.50;51.10;;;17.15;34.85;94279.53;5074273;28;20529;-64
2023/04/13 07:08:45;;;;;;;7.03;2.53;;;16.80;50.60;;;17.41;32.94;94277.22;5074603;28;20455;-58
2023/04/13 07:11:14;;;;;;;4.77;2.83;;;17.00;47.40;;;17.61;33.83;94277.31;5075515;28;20512;-62
2023/04/13 07:13:41;;;;;;;6.53;2.77;;;17.20;48.20;;;17.69;33.78;94279.78;5077147;28;20489;-57
2023/04/13 07:16:10;;;;;;;9.20;3.90;;;17.30;47.90;;;17.79;33.90;94280.25;5079731;28;20457;-56
2023/04/13 07:18:37;;;;;;;4.83;2.37;;;17.40;48.30;;;17.96;33.10;94280.75;5078291;28;20462;-62
2023/04/13 07:21:06;;;;;;;12.97;3.30;;;17.50;47.60;;;18.23;33.36;94279.00;5079714;28;20454;-62
2023/04/13 07:23:33;;;;;;;2.80;2.47;;;17.80;48.10;;;18.53;33.11;94275.94;5073544;28;20447;-63
2023/04/13 07:26:00;;;;;;;13.03;3.90;;;18.10;47.70;;;18.84;32.62;94269.19;5080366;28;20793;-59
2023/04/13 07:28:29;;;;;;;4.70;2.77;;;18.40;47.00;;;19.18;31.25;94267.34;5078514;28;20530;-57
2023/04/13 07:30:57;;;;;;;6.70;3.03;;;18.70;46.00;;;19.53;32.00;94269.72;5078730;28;20447;-61
2023/04/13 07:33:24;;;;;;;19.70;3.90;;;19.10;46.60;;;19.88;31.64;94267.56;5079192;28;20467;-62
2023/04/13 07:35:54;;;;;;;6.27;3.57;;;19.40;46.10;;;20.24;31.30;94270.66;5079033;28;20446;-62
2023/04/13 07:38:22;;;;;;;15.90;3.73;;;19.80;45.50;;;20.56;30.87;94262.66;5081037;28;20491;-62
2023/04/13 07:40:49;;;;;;;5.77;3.73;;;20.10;45.10;;;20.84;30.70;94258.78;5079950;28;20450;-56
2023/04/13 07:43:16;;;;;;;12.47;3.80;;;20.40;44.00;;;21.16;29.74;94272.84;5077378;28;20526;-62
2023/04/13 07:45:45;;;;;;;6.90;3.90;;;20.70;44.20;;;21.48;29.61;94262.88;5079815;28;20454;-58
2023/04/13 07:48:12;;;;;;;5.80;3.23;;;21.00;43.40;;;21.74;28.95;94263.66;5078450;28;20471;-62
2023/04/13 07:50:43;;;;;;;7.17;4.00;;;21.30;42.20;;;21.81;28.57;94259.03;5080964;28;20475;-63
2023/04/13 07:53:10;;;;;;;10.57;3.97;;;21.40;40.80;;;21.69;27.98;94249.28;5079575;28;20486;-56
2023/04/13 07:55:38;;;;;;;11.00;4.90;;;21.30;40.50;;;21.64;28.19;94258.00;5075922;28;20482;-63
2023/04/13 07:58:05;;;;;;;6.17;3.93;;;21.20;40.80;;;21.57;27.90;94260.75;5078526;28;20465;-55
2023/04/13 08:00:32;;;;;;;9.07;3.60;;;21.20;40.40;;;21.66;28.04;94251.38;5079885;28;20485;-64
2023/04/13 08:03:01;;;;;;;4.67;4.10;;;21.50;40.90;;;21.81;28.41;94242.97;5070837;28;20482;-56
2023/04/13 08:05:28;;;;;;;12.27;4.10;;;21.70;41.00;;;22.10;28.13;94245.06;5080246;28;20455;-56
2023/04/13 08:07:56;;;;;;;6.03;3.60;;;22.00;41.00;;;22.56;28.47;94248.97;5079001;28;21827;-63
2023/04/13 08:10:23;;;;;;;5.70;4.07;;;22.40;41.30;;;22.98;26.70;94242.75;5076549;28;20805;-63
2023/04/13 08:12:51;;;;;;;9.07;3.70;;;22.80;39.80;;;23.30;27.67;94229.84;5074226;28;20475;-63
2023/04/13 08:15:18;;;;;;;8.20;4.70;;;23.10;40.40;;;23.73;27.55;94233.13;5074652;28;20498;-56
2023/04/13 08:17:46;;;;;;;10.80;3.70;;;23.50;40.20;;;24.21;27.41;94231.13;5073308;28;20478;-62
2023/04/13 08:20:15;;;;;;;9.30;4.67;;;24.00;39.90;;;24.68;26.91;94231.72;5075639;28;20442;-63
2023/04/13 08:22:42;;;;;;;9.63;4.57;;;24.60;39.40;;;25.06;26.03;94232.03;5069311;28;20471;-62
2023/04/13 08:25:10;;;;;;;7.50;5.30;;;25.00;38.30;;;25.24;25.61;94228.28;5075710;28;20450;-58
2023/04/13 08:27:37;;;;;;;7.23;4.23;;;25.40;37.90;;;25.40;25.76;94222.06;5073838;28;20482;-62
2023/04/13 08:30:06;;;;;;;10.90;3.63;;;25.70;37.80;;;25.61;24.89;94224.22;5077340;28;20449;-58
2023/04/13 08:32:34;;;;;;;10.93;3.87;;;25.90;36.40;;;25.65;25.05;94219.97;5071372;28;20528;-62
2023/04/13 08:35:05;;;;;;;5.00;4.17;;;26.00;36.90;;;25.82;25.06;94217.22;5075209;28;20565;-56
2023/04/13 08:37:34;;;;;;;9.23;4.80;;;26.20;37.00;;;26.01;25.17;94213.16;5072367;28;20466;-58
2023/04/13 08:40:06;;;;;;;12.37;4.77;;;26.30;36.60;;;26.19;25.09;94206.59;5071364;28;20652;-62
2023/04/13 08:42:33;;;;;;;11.93;5.00;;;26.40;36.60;;;26.40;24.20;94209.50;5074570;28;20528;-56
2023/04/13 08:45:01;;;;;;;17.13;4.37;;;26.50;36.30;;;26.55;24.62;94204.25;5073667;28;20458;-63
2023/04/13 08:47:28;;;;;;;20.13;4.00;;;26.50;35.90;;;26.63;24.44;94200.28;5075095;28;20471;-63
2023/04/13 08:49:57;;;;;;;7.60;4.10;;;26.60;35.70;;;26.69;24.47;94209.25;5073273;28;20463;-58
2023/04/13 08:52:24;;;;;;;5.40;4.30;;;26.60;35.60;;;26.76;22.97;94207.19;5071503;28;20509;-55
2023/04/13 08:54:54;;;;;;;8.67;3.80;;;26.60;33.20;;;26.76;24.31;94202.59;5071663;28;20641;-56
2023/04/13 08:57:21;;;;;;;5.87;4.00;;;26.60;35.30;;;26.84;24.20;94206.69;5076645;28;20467;-63
2023/04/13 08:59:51;;;;;;;11.40;5.77;;;26.60;35.40;;;26.94;23.79;94200.53;5078083;28;20496;-64
2023/04/13 09:02:22;;;;;;;8.67;3.90;;;26.60;34.80;;;26.96;23.95;94204.63;5078180;28;21325;-62
2023/04/13 09:04:49;;;;;;;10.67;3.60;;;26.70;35.30;;;26.97;23.72;94203.56;5077619;28;20449;-63
2023/04/13 09:07:25;;;;;;;10.47;4.50;;;26.60;34.80;;;27.03;23.59;94193.59;5077213;28;20467;-64
2023/04/13 09:09:56;;;;;;;7.50;4.97;;;26.70;34.20;;;26.92;23.64;94189.22;5078300;28;20449;-62
2023/04/13 09:12:24;;;;;;;13.43;4.37;;;26.60;34.70;;;26.76;23.75;94178.28;5076866;28;20466;-61
2023/04/13 09:14:51;;;;;;;17.13;5.27;;;26.40;34.50;;;26.71;24.37;94186.38;5079663;28;20528;-67
2023/04/13 09:17:25;;;;;;;27.83;5.47;;;26.30;35.30;;;26.82;24.47;94177.25;5078002;28;20581;-57
2023/04/13 09:19:53;;;;;;;16.47;4.80;;;26.40;35.70;;;27.00;24.32;94183.31;5076160;28;20446;-64
2023/04/13 09:22:21;;;;;;;13.53;4.37;;;26.50;35.70;;;27.12;24.35;94175.84;5077799;28;20554;-57
2023/04/13 09:24:48;;;;;;;4.47;4.00;;;26.70;35.40;;;27.22;24.44;94176.97;5078364;28;20519;-57
2023/04/13 09:27:22;;;;;;;13.67;5.33;;;26.80;35.40;;;27.41;24.26;94172.81;5077198;28;20479;-56
2023/04/13 09:29:51;;;;;;;9.60;4.63;;;26.90;35.30;;;27.60;23.61;94169.66;5075261;28;20515;-56
2023/04/13 09:32:21;;;;;;;6.40;3.93;;;27.10;34.60;;;27.70;23.36;94169.69;5077010;28;20557;-57
2023/04/13 09:35:00;;;;;;;9.30;3.90;;;27.20;34.60;;;27.69;22.86;94173.47;5070791;28;20489;-63
2023/04/13 09:37:28;;;;;;;10.20;3.80;;;27.20;33.70;;;27.31;23.51;94156.50;5069830;28;20478;-63
2023/04/13 09:39:55;;;;;;;6.70;3.70;;;27.00;33.90;;;26.78;23.77;94154.56;5075452;28;21011;-63
2023/04/13 09:42:24;;;;;;;5.63;3.67;;;26.60;34.20;;;26.61;23.84;94148.47;5070251;28;20497;-58
2023/04/13 09:44:57;;;;;;;12.43;3.63;;;26.20;34.10;;;26.56;24.09;94145.75;5074346;28;20445;-56
2023/04/13 09:47:26;;;;;;;14.43;4.17;;;26.10;34.80;;;26.63;24.28;94141.75;5070146;28;20478;-62
2023/04/13 09:49:54;;;;;;;8.80;4.60;;;26.10;35.40;;;26.84;24.37;94148.13;5073054;28;20525;-56
2023/04/13 09:52:22;;;;;;;12.20;3.70;;;26.30;35.10;;;26.94;24.63;94135.78;5073562;28;20474;-57
2023/04/13 09:54:52;;;;;;;10.27;3.50;;;26.40;35.20;;;27.03;23.63;94134.22;5066144;28;21085;-63
2023/04/13 09:57:28;;;;;;;11.43;3.10;;;26.50;34.20;;;26.87;23.85;94138.72;5076747;28;20474;-58
2023/04/13 09:59:56;;;;;;;10.60;3.50;;;26.40;34.80;;;26.82;24.01;94136.78;5073708;28;20458;-57
2023/04/13 10:02:23;;;;;;;7.67;4.10;;;26.30;34.70;;;26.79;24.41;94133.81;5077250;28;20512;-61
2023/04/13 10:04:51;;;;;;;8.77;3.43;;;26.30;35.10;;;26.94;23.61;94120.41;5078659;28;20447;-62
2023/04/13 10:07:18;;;;;;;13.93;3.03;;;26.30;33.90;;;27.12;23.81;94116.44;5077643;28;20479;-61
2023/04/13 10:09:45;;;;;;;17.50;3.90;;;26.50;34.80;;;27.26;23.32;94116.00;5078345;28;20449;-62
2023/04/13 10:12:13;;;;;;;7.00;3.73;;;26.70;34.30;;;27.34;22.87;94113.63;5073918;28;20473;-58
2023/04/13 10:14:43;;;;;;;18.13;3.80;;;26.80;33.40;;;27.30;23.29;94109.81;5077614;28;20915;-63
2023/04/13 10:17:37;;;;;;;9.10;3.27;;;26.80;33.80;;;27.22;23.62;94114.88;5071761;28;20466;-56
2023/04/13 10:20:12;;;;;;;10.60;3.60;;;26.70;34.30;;;27.26;23.93;94114.09;5072108;28;20462;-57
2023/04/13 10:22:40;;;;;;;10.40;3.70;;;26.80;34.50;;;27.29;23.64;94116.25;5076294;28;20472;-63
2023/04/13 10:25:12;;;;;;;11.03;3.43;;;26.80;34.10;;;27.36;23.09;94108.78;5074917;28;20465;-57
2023/04/13 10:27:39;;;;;;;10.73;4.00;;;26.80;34.20;;;27.42;23.74;94112.31;5075468;28;20459;-65